createdAt,value
2018-04-27T00:00:37.700Z,99.90
2018-04-27T00:03:03.804Z,99.90
2018-04-27T00:05:29.879Z,99.90
2018-04-27T00:07:56.703Z,99.90
2018-04-27T00:10:22.786Z,99.90
2018-04-27T00:12:48.865Z,99.90
2018-04-27T00:15:15.673Z,99.90
2018-04-27T00:17:41.777Z,99.90
2018-04-27T00:20:07.841Z,99.90
2018-04-27T00:22:34.676Z,99.80
2018-04-27T00:25:00.755Z,99.80
2018-04-27T00:27:26.845Z,99.50
2018-04-27T00:29:52.920Z,99.30
2018-04-27T00:32:19.008Z,99.30
2018-04-27T00:34:45.828Z,99.40
2018-04-27T00:37:11.908Z,99.40
2018-04-27T00:39:37.971Z,99.50
2018-04-27T00:42:04.045Z,99.70
2018-04-27T00:44:30.123Z,99.70
2018-04-27T00:46:56.211Z,99.70
2018-04-27T00:49:22.288Z,99.70
2018-04-27T00:51:48.360Z,99.80
2018-04-27T00:54:14.445Z,99.90
2018-04-27T00:56:41.259Z,99.90
2018-04-27T00:59:07.351Z,99.90
2018-04-27T01:01:33.428Z,99.90
2018-04-27T01:03:59.508Z,99.90
2018-04-27T01:06:25.593Z,99.90
2018-04-27T01:08:52.420Z,99.90
2018-04-27T01:11:19.981Z,99.90
2018-04-27T01:13:46.068Z,99.90
2018-04-27T01:16:12.140Z,99.90
2018-04-27T01:18:38.207Z,99.90
2018-04-27T01:21:04.267Z,99.90
2018-04-27T01:23:30.338Z,99.90
2018-04-27T01:25:56.409Z,99.90
2018-04-27T01:28:22.476Z,99.90
2018-04-27T01:30:49.300Z,99.90
2018-04-27T01:33:15.367Z,99.90
2018-04-27T01:35:41.451Z,99.90
2018-04-27T01:38:07.516Z,99.90
2018-04-27T01:40:33.592Z,99.90
2018-04-27T01:43:00.413Z,99.90
2018-04-27T01:45:26.493Z,99.90
2018-04-27T01:47:53.308Z,99.70
2018-04-27T01:50:19.384Z,99.70
2018-04-27T01:52:45.460Z,99.70
2018-04-27T01:55:11.540Z,99.50
2018-04-27T01:57:37.624Z,99.30
2018-04-27T02:00:04.432Z,99.20
2018-04-27T02:02:30.512Z,99.20
2018-04-27T02:04:56.593Z,99.20
2018-04-27T02:07:22.670Z,99.20
2018-04-27T02:09:48.742Z,99.10
2018-04-27T02:12:14.818Z,99.10
2018-04-27T02:14:40.905Z,99.10
2018-04-27T02:17:06.983Z,99.10
2018-04-27T02:19:33.056Z,99.20
2018-04-27T02:21:59.140Z,99.20
2018-04-27T02:24:25.217Z,99.40
2018-04-27T02:26:52.044Z,99.80
2018-04-27T02:29:18.117Z,99.70
2018-04-27T02:31:44.184Z,99.80
2018-04-27T02:34:10.265Z,99.80
2018-04-27T02:36:36.344Z,99.70
2018-04-27T02:39:02.421Z,99.60
2018-04-27T02:41:28.492Z,99.40
2018-04-27T02:43:54.583Z,99.30
2018-04-27T02:46:20.667Z,99.30
2018-04-27T02:48:47.496Z,99.30
2018-04-27T02:51:14.320Z,99.10
2018-04-27T02:53:40.412Z,99.30
2018-04-27T02:56:06.516Z,99.40
2018-04-27T02:58:32.611Z,99.40
2018-04-27T03:00:58.692Z,99.40
2018-04-27T03:03:24.784Z,99.50
2018-04-27T03:05:51.624Z,99.60
2018-04-27T03:08:18.452Z,99.50
2018-04-27T03:10:44.544Z,99.50
2018-04-27T03:13:10.632Z,99.80
2018-04-27T03:15:36.732Z,99.60
2018-04-27T03:18:02.815Z,99.50
2018-04-27T03:20:28.907Z,99.60
2018-04-27T03:22:54.987Z,99.50
2018-04-27T03:25:21.084Z,99.50
2018-04-27T03:27:47.172Z,99.60
2018-04-27T03:30:14.008Z,99.80
2018-04-27T03:32:40.832Z,99.90
2018-04-27T03:35:06.923Z,99.90
2018-04-27T03:37:33.016Z,99.90
2018-04-27T03:39:59.120Z,99.90
2018-04-27T03:42:25.952Z,99.90
2018-04-27T03:44:52.067Z,99.90
2018-04-27T03:47:18.152Z,99.90
2018-04-27T03:49:44.248Z,99.90
2018-04-27T03:52:11.096Z,99.90
2018-04-27T03:54:37.188Z,99.90
2018-04-27T03:57:03.285Z,99.90
2018-04-27T03:59:48.163Z,99.90
2018-04-27T04:02:32.940Z,99.90
2018-04-27T04:05:17.604Z,99.90
2018-04-27T04:07:43.696Z,99.90
2018-04-27T04:10:09.785Z,99.90
2018-04-27T04:12:36.616Z,99.90
2018-04-27T04:15:02.692Z,99.90
2018-04-27T04:17:28.783Z,99.90
2018-04-27T04:19:55.603Z,99.90
2018-04-27T04:22:21.688Z,99.90
2018-04-27T04:24:47.776Z,99.90
2018-04-27T04:27:13.867Z,99.90
2018-04-27T04:29:39.950Z,99.90
2018-04-27T04:32:06.064Z,99.80
2018-04-27T04:34:32.140Z,99.70
2018-04-27T04:36:58.228Z,99.70
2018-04-27T04:39:24.314Z,99.60
2018-04-27T04:41:51.153Z,99.60
2018-04-27T04:44:17.248Z,99.50
2018-04-27T04:46:44.084Z,99.50
2018-04-27T04:49:10.179Z,99.50
2018-04-27T04:51:36.264Z,99.50
2018-04-27T04:54:02.348Z,99.50
2018-04-27T04:56:28.428Z,99.40
2018-04-27T04:58:55.249Z,99.30
2018-04-27T05:01:21.329Z,99.30
2018-04-27T05:03:47.420Z,99.10
2018-04-27T05:06:14.240Z,99.00
2018-04-27T05:08:40.324Z,98.90
2018-04-27T05:11:06.413Z,98.80
2018-04-27T05:13:32.479Z,98.70
2018-04-27T05:15:58.568Z,98.70
2018-04-27T05:21:32.200Z,98.60
2018-04-27T05:23:59.015Z,98.90
2018-04-27T05:26:25.084Z,98.80
2018-04-27T05:28:51.152Z,98.60
2018-04-27T05:31:23.184Z,98.30
2018-04-27T05:33:49.272Z,97.80
2018-04-27T05:36:16.096Z,97.50
2018-04-27T05:38:42.164Z,97.50
2018-04-27T05:41:08.229Z,97.10
2018-04-27T05:43:34.292Z,96.80
2018-04-27T05:46:01.112Z,96.30
2018-04-27T05:48:27.167Z,96.20
2018-04-27T05:50:53.973Z,95.60
2018-04-27T05:53:20.044Z,95.60
2018-04-27T05:55:46.128Z,95.60
2018-04-27T05:58:12.216Z,95.80
2018-04-27T06:00:38.324Z,95.80
2018-04-27T06:03:04.415Z,95.90
2018-04-27T06:05:31.979Z,95.70
2018-04-27T06:07:58.071Z,95.70
2018-04-27T06:10:24.143Z,95.40
2018-04-27T06:12:50.981Z,93.70
2018-04-27T06:15:17.792Z,93.80
2018-04-27T06:17:43.888Z,93.80
2018-04-27T06:20:09.988Z,93.40
2018-04-27T06:22:36.075Z,94.50
2018-04-27T06:25:02.157Z,94.10
2018-04-27T06:27:28.258Z,94.00
2018-04-27T06:29:54.341Z,93.80
2018-04-27T06:32:20.452Z,93.60
2018-04-27T06:34:46.552Z,93.90
2018-04-27T06:37:12.641Z,94.40
2018-04-27T06:39:38.732Z,94.30
2018-04-27T06:42:04.801Z,93.60
2018-04-27T06:44:31.628Z,93.40
2018-04-27T06:46:57.713Z,93.30
2018-04-27T06:49:23.804Z,93.50
2018-04-27T06:51:50.621Z,93.00
2018-04-27T06:54:16.725Z,93.00
2018-04-27T06:56:42.803Z,92.50
2018-04-27T06:59:08.949Z,93.00
2018-04-27T07:01:35.724Z,93.30
2018-04-27T07:04:01.801Z,93.30
2018-04-27T07:06:27.889Z,93.50
2018-04-27T07:08:53.965Z,93.90
2018-04-27T07:11:20.039Z,93.40
2018-04-27T07:13:46.155Z,93.40
2018-04-27T07:16:12.980Z,93.90
2018-04-27T07:18:39.068Z,93.80
2018-04-27T07:21:05.173Z,94.20
2018-04-27T07:23:32.000Z,95.30
2018-04-27T07:25:58.147Z,95.20
2018-04-27T07:28:24.196Z,95.20
2018-04-27T07:30:50.284Z,94.90
2018-04-27T07:33:16.380Z,94.80
2018-04-27T07:35:42.480Z,95.10
2018-04-27T07:38:08.556Z,95.60
2018-04-27T07:40:34.640Z,95.50
2018-04-27T07:43:00.719Z,95.40
2018-04-27T07:45:27.552Z,95.70
2018-04-27T07:47:53.636Z,95.70
2018-04-27T07:50:19.738Z,95.80
2018-04-27T07:52:45.824Z,95.90
2018-04-27T07:55:11.921Z,95.80
2018-04-27T07:57:51.689Z,95.20
2018-04-27T08:00:17.767Z,95.20
2018-04-27T08:02:43.837Z,95.30
2018-04-27T08:05:09.900Z,95.30
2018-04-27T08:07:35.972Z,95.60
2018-04-27T08:10:02.043Z,95.80
2018-04-27T08:12:28.853Z,95.60
2018-04-27T08:14:54.920Z,95.60
2018-04-27T08:17:20.996Z,95.70
2018-04-27T08:19:47.056Z,95.60
2018-04-27T08:22:13.870Z,95.40
2018-04-27T08:24:39.937Z,95.40
2018-04-27T08:27:06.012Z,95.30
2018-04-27T08:29:32.080Z,95.10
2018-04-27T08:31:58.888Z,94.90
2018-04-27T08:34:24.944Z,94.90
2018-04-27T08:36:51.761Z,95.20
2018-04-27T08:39:17.840Z,95.20
2018-04-27T08:41:43.914Z,95.00
2018-04-27T08:44:09.993Z,94.50
2018-04-27T08:46:36.074Z,93.90
2018-04-27T08:49:02.157Z,93.90
2018-04-27T08:51:28.220Z,93.60
2018-04-27T08:53:54.299Z,93.50
2018-04-27T08:56:20.375Z,91.90
2018-04-27T08:58:46.456Z,92.40
2018-04-27T09:01:12.548Z,92.70
2018-04-27T09:03:39.380Z,92.40
2018-04-27T09:06:06.192Z,92.10
2018-04-27T09:08:32.289Z,92.10
2018-04-27T09:10:58.374Z,92.30
2018-04-27T09:13:24.460Z,91.20
2018-04-27T09:15:50.542Z,91.00
2018-04-27T09:18:16.624Z,90.80
2018-04-27T09:20:42.709Z,90.20
2018-04-27T09:23:08.789Z,88.50
2018-04-27T09:25:34.879Z,87.20
2018-04-27T09:28:00.960Z,86.10
2018-04-27T09:30:27.787Z,87.90
2018-04-27T09:32:53.868Z,87.80
2018-04-27T09:35:19.956Z,86.60
2018-04-27T09:37:46.048Z,86.20
2018-04-27T09:40:12.124Z,85.30
2018-04-27T09:42:38.197Z,84.30
2018-04-27T09:45:04.282Z,85.10
2018-04-27T09:47:30.362Z,85.60
2018-04-27T09:49:56.460Z,83.90
2018-04-27T09:52:22.552Z,85.20
2018-04-27T09:54:48.640Z,83.80
2018-04-27T09:57:15.472Z,83.90
2018-04-27T09:59:41.567Z,83.10
2018-04-27T10:02:07.672Z,82.70
2018-04-27T10:04:33.744Z,81.90
2018-04-27T10:06:59.827Z,82.20
2018-04-27T10:09:25.920Z,81.00
2018-04-27T10:11:52.752Z,80.40
2018-04-27T10:14:19.568Z,80.00
2018-04-27T10:16:45.665Z,79.40
2018-04-27T10:19:11.753Z,77.90
2018-04-27T10:21:38.583Z,72.10
2018-04-27T10:24:04.669Z,72.10
2018-04-27T10:26:30.766Z,69.80
2018-04-27T10:28:56.848Z,66.30
2018-04-27T10:31:24.424Z,65.10
2018-04-27T10:33:50.515Z,65.00
2018-04-27T10:36:16.588Z,62.90
2018-04-27T10:38:43.428Z,61.50
2018-04-27T10:41:09.512Z,61.40
2018-04-27T10:43:35.594Z,58.60
2018-04-27T10:46:01.665Z,57.30
2018-04-27T10:48:27.727Z,56.40
2018-04-27T10:50:54.536Z,54.20
2018-04-27T10:53:20.604Z,54.10
2018-04-27T10:55:46.696Z,52.60
2018-04-27T10:58:12.776Z,52.80
2018-04-27T11:00:38.858Z,53.00
2018-04-27T11:03:04.928Z,52.90
2018-04-27T11:05:31.003Z,53.60
2018-04-27T11:07:57.076Z,52.00
2018-04-27T11:10:23.160Z,49.30
2018-04-27T11:12:49.248Z,47.70
2018-04-27T11:15:15.324Z,46.70
2018-04-27T11:17:42.161Z,43.10
2018-04-27T11:20:08.997Z,43.00
2018-04-27T11:22:35.808Z,42.20
2018-04-27T11:25:16.796Z,42.30
2018-04-27T11:27:42.868Z,41.30
2018-04-27T11:30:08.960Z,40.90
2018-04-27T11:32:35.036Z,40.70
2018-04-27T11:35:01.129Z,40.60
2018-04-27T11:37:27.943Z,40.50
2018-04-27T11:39:54.033Z,40.40
2018-04-27T11:42:20.115Z,40.40
2018-04-27T11:44:46.972Z,38.60
2018-04-27T11:47:13.792Z,38.10
2018-04-27T11:49:39.871Z,38.10
2018-04-27T11:52:05.963Z,36.30
2018-04-27T11:54:32.777Z,35.50
2018-04-27T11:57:17.225Z,35.50
2018-04-27T12:00:05.718Z,35.80
2018-04-27T12:02:49.316Z,36.50
2018-04-27T12:05:23.799Z,36.20
2018-04-27T12:07:53.355Z,37.00
2018-04-27T12:10:25.208Z,36.10
2018-04-27T12:12:51.280Z,36.10
2018-04-27T12:15:17.344Z,34.30
2018-04-27T12:17:43.431Z,33.30
2018-04-27T12:20:09.511Z,33.70
2018-04-27T12:22:36.684Z,33.80
2018-04-27T12:25:03.513Z,32.70
2018-04-27T12:27:29.590Z,32.70
2018-04-27T12:29:55.667Z,32.90
2018-04-27T12:32:33.920Z,33.00
2018-04-27T12:35:00.044Z,33.00
2018-04-27T12:37:26.227Z,33.50
2018-04-27T12:39:52.285Z,33.40
2018-04-27T12:42:18.347Z,33.40
2018-04-27T12:44:44.411Z,33.40
2018-04-27T12:47:10.485Z,33.60
2018-04-27T12:49:36.541Z,34.20
2018-04-27T12:52:02.606Z,35.50
2018-04-27T12:54:28.676Z,35.40
2018-04-27T12:56:54.728Z,34.70
2018-04-27T12:59:20.806Z,34.70
2018-04-27T13:01:46.883Z,33.60
2018-04-27T13:04:13.692Z,33.40
2018-04-27T13:10:04.485Z,33.60
2018-04-27T13:12:30.579Z,33.70
2018-04-27T13:14:57.389Z,34.00
2018-04-27T13:17:23.457Z,34.00
2018-04-27T13:19:50.260Z,33.60
2018-04-27T13:22:16.346Z,33.60
2018-04-27T13:24:42.422Z,34.00
2018-04-27T13:27:08.498Z,34.00
2018-04-27T13:29:34.590Z,33.00
2018-04-27T13:32:01.424Z,31.40
2018-04-27T13:34:27.514Z,31.30
2018-04-27T13:36:53.679Z,30.80
2018-04-27T13:39:19.760Z,30.50
2018-04-27T13:41:45.828Z,31.10
2018-04-27T13:44:11.933Z,29.10
2018-04-27T13:46:38.000Z,29.30
2018-04-27T13:49:04.065Z,29.80
2018-04-27T13:51:30.146Z,30.30
2018-04-27T13:53:56.960Z,29.90
2018-04-27T13:56:23.051Z,29.90
2018-04-27T13:58:49.127Z,29.50
2018-04-27T14:01:15.967Z,29.60
2018-04-27T14:03:42.793Z,29.80
2018-04-27T14:06:08.877Z,29.70
2018-04-27T14:08:34.944Z,30.60
2018-04-27T14:11:01.030Z,30.90
2018-04-27T14:13:27.099Z,30.50
2018-04-27T14:15:53.929Z,29.70
2018-04-27T14:18:19.994Z,29.70
2018-04-27T14:20:46.808Z,30.00
2018-04-27T14:23:12.897Z,30.00
2018-04-27T14:25:38.999Z,31.40
2018-04-27T14:28:05.088Z,29.80
2018-04-27T14:30:31.189Z,30.20
2018-04-27T14:32:57.283Z,30.70
2018-04-27T14:35:23.373Z,30.30
2018-04-27T14:37:50.214Z,29.90
2018-04-27T14:40:16.301Z,29.90
2018-04-27T14:42:42.389Z,30.00
2018-04-27T14:45:08.476Z,29.80
2018-04-27T14:47:34.573Z,29.20
2018-04-27T14:50:00.660Z,29.50
2018-04-27T14:52:27.528Z,30.10
2018-04-27T14:54:53.588Z,30.10
2018-04-27T14:57:19.677Z,30.00
2018-04-27T14:59:45.756Z,29.50
2018-04-27T15:02:11.821Z,29.40
2018-04-27T15:04:37.913Z,29.50
2018-04-27T15:07:04.724Z,29.70
2018-04-27T15:09:30.832Z,29.20
2018-04-27T15:11:56.912Z,29.90
2018-04-27T15:14:23.727Z,29.90
2018-04-27T15:16:49.820Z,29.80
2018-04-27T15:19:16.231Z,29.90
2018-04-27T15:21:42.324Z,29.40
2018-04-27T15:24:08.435Z,29.70
2018-04-27T15:26:34.501Z,30.00
2018-04-27T15:29:00.588Z,30.00
2018-04-27T15:31:26.677Z,30.70
2018-04-27T15:33:52.765Z,30.20
2018-04-27T15:36:19.583Z,30.30
2018-04-27T15:38:46.417Z,30.50
2018-04-27T15:41:12.492Z,30.50
2018-04-27T15:43:38.597Z,30.80
2018-04-27T15:46:05.416Z,30.90
2018-04-27T15:48:31.497Z,30.90
2018-04-27T15:50:57.591Z,31.00
2018-04-27T15:53:24.411Z,31.80
2018-04-27T15:55:50.512Z,31.60
2018-04-27T15:58:16.596Z,32.30
2018-04-27T16:00:43.421Z,33.00
2018-04-27T16:03:10.240Z,33.50
2018-04-27T16:05:36.332Z,33.50
2018-04-27T16:08:02.411Z,33.60
2018-04-27T16:10:28.509Z,33.70
2018-04-27T16:12:54.579Z,34.40
2018-04-27T16:15:21.419Z,34.80
2018-04-27T16:17:48.236Z,34.70
2018-04-27T16:20:14.340Z,34.60
2018-04-27T16:22:40.412Z,34.80
2018-04-27T16:25:07.220Z,35.10
2018-04-27T16:27:33.308Z,35.00
2018-04-27T16:29:59.383Z,35.10
2018-04-27T16:32:25.461Z,35.50
2018-04-27T16:34:51.535Z,36.00
2018-04-27T16:37:17.619Z,36.50
2018-04-27T16:39:43.691Z,36.70
2018-04-27T16:42:09.786Z,37.00
2018-04-27T16:44:36.608Z,37.60
2018-04-27T16:47:02.700Z,37.60
2018-04-27T16:49:29.528Z,37.50
2018-04-27T16:51:55.617Z,37.50
2018-04-27T16:54:21.700Z,37.70
2018-04-27T16:56:48.519Z,38.20
2018-04-27T16:59:14.587Z,38.20
2018-04-27T17:01:40.676Z,38.70
2018-04-27T17:04:06.737Z,39.20
2018-04-27T17:06:32.813Z,39.20
2018-04-27T17:08:58.880Z,39.50
2018-04-27T17:11:24.940Z,39.70
2018-04-27T17:13:51.012Z,39.90
2018-04-27T17:16:17.812Z,40.70
2018-04-27T17:18:43.880Z,40.60
2018-04-27T17:21:10.691Z,41.20
2018-04-27T17:23:36.764Z,41.80
2018-04-27T17:26:02.828Z,40.90
2018-04-27T17:28:28.886Z,40.90
2018-04-27T17:30:54.943Z,41.50
2018-04-27T17:33:21.036Z,42.00
2018-04-27T17:35:47.859Z,42.50
2018-04-27T17:38:14.651Z,43.00
2018-04-27T17:40:40.717Z,43.00
2018-04-27T17:43:06.783Z,43.20
2018-04-27T17:45:33.588Z,44.40
2018-04-27T17:47:59.651Z,44.40
2018-04-27T17:50:26.472Z,44.70
2018-04-27T17:52:52.548Z,44.70
2018-04-27T17:55:18.628Z,45.40
2018-04-27T17:57:44.696Z,46.00
2018-04-27T18:00:10.764Z,47.00
2018-04-27T18:02:36.836Z,46.80
2018-04-27T18:05:02.912Z,47.20
2018-04-27T18:07:29.019Z,47.50
2018-04-27T18:09:55.100Z,48.30
2018-04-27T18:12:21.916Z,48.70
2018-04-27T18:14:47.980Z,48.70
2018-04-27T18:17:14.056Z,49.10
2018-04-27T18:19:40.127Z,49.50
2018-04-27T18:22:12.828Z,49.90
2018-04-27T18:24:38.904Z,50.10
2018-04-27T18:27:04.972Z,50.30
2018-04-27T18:29:31.032Z,50.70
2018-04-27T18:31:57.112Z,51.40
2018-04-27T18:34:23.184Z,52.10
2018-04-27T18:36:49.239Z,52.50
2018-04-27T18:39:16.124Z,53.50
2018-04-27T18:41:42.132Z,53.40
2018-04-27T18:44:08.207Z,53.60
2018-04-27T18:46:34.264Z,53.80
2018-04-27T18:49:01.069Z,54.10
2018-04-27T18:51:27.217Z,54.10
2018-04-27T18:53:53.209Z,54.70
2018-04-27T18:56:20.156Z,54.90
2018-04-27T18:58:47.160Z,55.20
2018-04-27T19:01:14.282Z,55.70
2018-04-27T19:03:41.153Z,56.60
2018-04-27T19:06:07.209Z,56.60
2018-04-27T19:08:33.267Z,57.20
2018-04-27T19:10:59.336Z,57.60
2018-04-27T19:13:25.396Z,58.10
2018-04-27T19:15:51.459Z,58.50
2018-04-27T19:18:18.264Z,59.30
2018-04-27T19:20:44.328Z,59.30
2018-04-27T19:23:12.035Z,60.30
2018-04-27T19:25:39.036Z,60.30
2018-04-27T19:28:05.829Z,60.40
2018-04-27T19:30:31.909Z,60.30
2018-04-27T19:32:58.712Z,60.00
2018-04-27T19:35:24.788Z,60.00
2018-04-27T19:37:50.854Z,59.90
2018-04-27T19:40:16.912Z,60.00
2018-04-27T19:42:43.737Z,60.20
2018-04-27T19:45:09.806Z,60.20
2018-04-27T19:47:35.887Z,60.50
2018-04-27T19:50:01.961Z,61.00
2018-04-27T19:52:28.028Z,61.50
2018-04-27T19:54:54.109Z,62.00
2018-04-27T19:57:20.184Z,62.40
2018-04-27T19:59:46.317Z,62.70
2018-04-27T20:02:12.400Z,62.80
2018-04-27T20:04:38.459Z,63.10
2018-04-27T20:07:04.532Z,63.40
2018-04-27T20:09:30.589Z,63.90
2018-04-27T20:11:57.400Z,64.60
2018-04-27T20:14:30.375Z,64.60
2018-04-27T20:16:59.299Z,65.50
2018-04-27T20:19:25.286Z,65.50
2018-04-27T20:21:52.089Z,66.50
2018-04-27T20:24:18.189Z,66.50
2018-04-27T20:26:44.225Z,66.90
2018-04-27T20:29:27.620Z,67.50
2018-04-27T20:31:53.680Z,68.20
2018-04-27T20:34:19.749Z,69.10
2018-04-27T20:36:46.548Z,70.20
2018-04-27T20:39:12.615Z,70.20
2018-04-27T20:41:39.416Z,71.90
2018-04-27T20:44:05.488Z,71.20
2018-04-27T20:46:32.301Z,71.90
2018-04-27T20:48:58.363Z,71.80
2018-04-27T20:51:25.172Z,72.10
2018-04-27T20:53:56.264Z,72.00
2018-04-27T20:56:25.252Z,72.10
2018-04-27T20:58:51.333Z,72.00
2018-04-27T21:01:17.403Z,72.20
2018-04-27T21:03:43.503Z,72.80
2018-04-27T21:06:10.324Z,73.90
2018-04-27T21:08:36.388Z,73.90
2018-04-27T21:11:03.212Z,75.00
2018-04-27T21:13:30.033Z,76.40
2018-04-27T21:15:56.110Z,75.60
2018-04-27T21:18:27.115Z,76.10
2018-04-27T21:20:53.948Z,76.30
2018-04-27T21:23:20.033Z,76.30
2018-04-27T21:25:46.122Z,76.20
2018-04-27T21:28:12.940Z,76.00
2018-04-27T21:30:39.029Z,76.00
2018-04-27T21:33:05.928Z,76.40
2018-04-27T21:35:35.808Z,77.30
2018-04-27T21:41:21.537Z,77.40
2018-04-27T21:43:47.614Z,77.50
2018-04-27T21:46:28.772Z,77.50
2018-04-27T21:49:16.704Z,77.60
2018-04-27T21:51:55.352Z,78.80
2018-04-27T21:54:49.029Z,78.70
2018-04-27T21:57:16.142Z,78.90
2018-04-27T22:03:01.145Z,79.40
2018-04-27T22:06:06.004Z,79.80
2018-04-27T22:08:39.247Z,80.20
2018-04-27T22:11:06.287Z,80.40
2018-04-27T22:13:39.420Z,81.00
2018-04-27T22:16:18.787Z,81.30
2018-04-27T22:18:44.860Z,81.20
2018-04-27T22:21:11.660Z,81.50
2018-04-27T22:24:06.961Z,81.40
2018-04-27T22:26:53.516Z,81.80
2018-04-27T22:29:25.776Z,82.80
2018-04-27T22:31:51.851Z,82.80
2018-04-27T22:34:23.029Z,82.90
2018-04-27T22:40:07.032Z,83.50
2018-04-27T22:42:46.741Z,83.50
2018-04-27T22:45:16.663Z,83.50
2018-04-27T22:47:42.794Z,83.50
2018-04-27T22:53:09.352Z,83.50
2018-04-27T22:55:35.441Z,83.70
2018-04-27T22:58:34.958Z,83.90
2018-04-27T23:04:08.466Z,83.90
2018-04-27T23:06:48.958Z,84.10
2018-04-27T23:09:15.045Z,84.10
2018-04-27T23:11:52.363Z,84.60
2018-04-27T23:14:27.622Z,84.70
2018-04-27T23:16:53.723Z,85.00
2018-04-27T23:19:33.225Z,85.00
2018-04-27T23:25:19.833Z,85.10
2018-04-27T23:27:46.672Z,85.70
2018-04-27T23:30:20.321Z,85.70
2018-04-27T23:32:46.415Z,85.70
2018-04-27T23:35:12.506Z,85.70
2018-04-27T23:37:38.606Z,85.60
2018-04-27T23:40:04.693Z,85.70
2018-04-27T23:42:30.789Z,85.60
2018-04-27T23:44:56.869Z,85.70
2018-04-27T23:47:22.961Z,86.10
2018-04-27T23:49:49.791Z,86.00
2018-04-27T23:52:16.625Z,86.10
2018-04-27T23:54:42.723Z,86.00
2018-04-27T23:57:08.833Z,86.30
2018-04-27T23:59:35.861Z,86.40
